createdAt,value
2022-11-21T00:00:57.719Z,97973.47
2022-11-21T00:03:24.820Z,97982.47
2022-11-21T00:05:51.791Z,97975.75
2022-11-21T00:08:20.665Z,97962.28
2022-11-21T00:10:48.543Z,97967.75
2022-11-21T00:13:18.479Z,97967.81
2022-11-21T00:15:46.139Z,97960.91
2022-11-21T00:18:15.892Z,97960.41
2022-11-21T00:20:43.618Z,97946.84
2022-11-21T00:23:11.763Z,97954.16
2022-11-21T00:25:39.007Z,97956.34
2022-11-21T00:28:06.113Z,97934.28
2022-11-21T00:30:33.089Z,97935.81
2022-11-21T00:33:00.046Z,97924.13
2022-11-21T00:35:27.163Z,97935.91
2022-11-21T00:37:54.356Z,97942.31
2022-11-21T00:40:21.315Z,97935.25
2022-11-21T00:42:48.417Z,97924.69
2022-11-21T00:45:19.658Z,97910.34
2022-11-21T00:47:49.603Z,97911.97
2022-11-21T00:50:16.424Z,97917.34
2022-11-21T00:52:43.242Z,97918.63
2022-11-21T00:55:10.302Z,97924.84
2022-11-21T00:57:37.081Z,97922.75
2022-11-21T01:00:05.647Z,97920.25
2022-11-21T01:02:32.853Z,97929.72
2022-11-21T01:04:59.841Z,97925.44
2022-11-21T01:07:26.647Z,97921.94
2022-11-21T01:09:53.531Z,97938.19
2022-11-21T01:12:20.295Z,97934.16
2022-11-21T01:14:47.211Z,97940.66
2022-11-21T01:17:14.448Z,97942.63
2022-11-21T01:19:41.436Z,97949.78
2022-11-21T01:22:08.385Z,97922.84
2022-11-21T01:24:35.162Z,97918.34
2022-11-21T01:27:01.996Z,97916.63
2022-11-21T01:29:28.836Z,97928.84
2022-11-21T01:31:55.599Z,97937.78
2022-11-21T01:34:22.609Z,97916.34
2022-11-21T01:36:49.432Z,97926.78
2022-11-21T01:39:16.274Z,97928.63
2022-11-21T01:41:45.837Z,97924.63
2022-11-21T01:44:24.607Z,97913.34
2022-11-21T01:46:52.665Z,97910.06
2022-11-21T01:49:32.496Z,97906.59
2022-11-21T01:52:08.436Z,97915.19
2022-11-21T01:54:58.817Z,97907.88
2022-11-21T01:57:48.172Z,97919.75
2022-11-21T02:00:22.873Z,97902.22
2022-11-21T02:02:58.709Z,97908.63
2022-11-21T02:05:29.369Z,97910.88
2022-11-21T02:08:02.472Z,97915.88
2022-11-21T02:10:29.404Z,97919.31
2022-11-21T02:12:58.788Z,97909.38
2022-11-21T02:15:28.041Z,97905.81
2022-11-21T02:17:55.231Z,97904.53
2022-11-21T02:20:25.031Z,97907.22
2022-11-21T02:23:25.046Z,97905.31
2022-11-21T02:25:52.325Z,97895.06
2022-11-21T02:28:20.991Z,97893.88
2022-11-21T02:30:47.758Z,97904.88
2022-11-21T02:33:14.701Z,97898.69
2022-11-21T02:35:41.783Z,97897.91
2022-11-21T02:38:22.493Z,97901.59
2022-11-21T02:40:58.574Z,97893.22
2022-11-21T02:43:38.858Z,97883.56
2022-11-21T02:46:05.585Z,97872.78
2022-11-21T02:48:32.398Z,97879.69
2022-11-21T02:51:03.234Z,97879.41
2022-11-21T02:53:30.103Z,97882.59
2022-11-21T02:55:57.006Z,97870.75
2022-11-21T02:58:24.127Z,97878.22
2022-11-21T03:00:51.136Z,97875.03
2022-11-21T03:03:18.001Z,97874.13
2022-11-21T03:05:44.741Z,97866.56
2022-11-21T03:08:11.725Z,97875.16
2022-11-21T03:10:38.571Z,97870.75
2022-11-21T03:13:05.492Z,97870.19
2022-11-21T03:15:34.456Z,97874.47
2022-11-21T03:18:02.945Z,97865.28
2022-11-21T03:20:31.249Z,97869.59
2022-11-21T03:22:58.193Z,97859.41
2022-11-21T03:25:25.127Z,97860.22
2022-11-21T03:27:53.486Z,97855.34
2022-11-21T03:30:22.146Z,97861.22
2022-11-21T03:32:49.129Z,97854.75
2022-11-21T03:35:16.405Z,97855.25
2022-11-21T03:37:44.712Z,97851.75
2022-11-21T03:40:12.146Z,97851.16
2022-11-21T03:42:39.021Z,97850.03
2022-11-21T03:45:06.657Z,97851.16
2022-11-21T03:47:34.367Z,97836.06
2022-11-21T03:50:01.220Z,97843.66
2022-11-21T03:52:28.197Z,97849.53
2022-11-21T03:54:54.942Z,97833.38
2022-11-21T03:57:21.956Z,97832.28
2022-11-21T03:59:48.813Z,97836.50
2022-11-21T04:02:17.687Z,97825.44
2022-11-21T04:04:44.477Z,97838.63
2022-11-21T04:07:11.344Z,97849.41
2022-11-21T04:09:38.169Z,97835.59
2022-11-21T04:12:07.743Z,97834.00
2022-11-21T04:14:34.860Z,97832.41
2022-11-21T04:17:01.744Z,97838.31
2022-11-21T04:19:28.580Z,97825.66
2022-11-21T04:21:55.345Z,97822.44
2022-11-21T04:24:22.116Z,97835.09
2022-11-21T04:26:48.895Z,97828.94
2022-11-21T04:29:15.583Z,97833.22
2022-11-21T04:31:42.324Z,97843.50
2022-11-21T04:34:09.089Z,97833.28
2022-11-21T04:36:35.845Z,97831.63
2022-11-21T04:39:02.648Z,97845.09
2022-11-21T04:41:29.470Z,97841.91
2022-11-21T04:43:56.235Z,97847.28
2022-11-21T04:46:22.984Z,97841.09
2022-11-21T04:48:49.784Z,97842.97
2022-11-21T04:51:16.587Z,97838.50
2022-11-21T04:53:43.508Z,97844.16
2022-11-21T04:56:10.460Z,97843.28
2022-11-21T04:58:37.238Z,97842.47
2022-11-21T05:01:08.835Z,97839.59
2022-11-21T05:03:36.686Z,97846.06
2022-11-21T05:06:03.868Z,97847.94
2022-11-21T05:08:30.713Z,97846.44
2022-11-21T05:11:16.311Z,97847.53
2022-11-21T05:13:43.157Z,97849.94
2022-11-21T05:16:09.923Z,97839.16
2022-11-21T05:18:36.726Z,97844.75
2022-11-21T05:21:04.004Z,97840.19
2022-11-21T05:23:30.736Z,97842.66
2022-11-21T05:25:57.725Z,97846.53
2022-11-21T05:28:27.884Z,97851.63
2022-11-21T05:30:54.601Z,97843.31
2022-11-21T05:33:21.654Z,97850.13
2022-11-21T05:35:48.393Z,97851.41
2022-11-21T05:38:15.176Z,97844.41
2022-11-21T05:40:41.957Z,97839.13
2022-11-21T05:43:30.363Z,97852.00
2022-11-21T05:45:57.402Z,97855.00
2022-11-21T05:48:24.222Z,97854.19
2022-11-21T05:50:51.034Z,97841.31
2022-11-21T05:53:18.413Z,97848.00
2022-11-21T05:55:45.640Z,97843.13
2022-11-21T05:58:12.851Z,97844.41
2022-11-21T06:00:40.000Z,97844.34
2022-11-21T06:03:27.011Z,97839.03
2022-11-21T06:06:13.662Z,97844.41
2022-11-21T06:08:43.601Z,97835.75
2022-11-21T06:11:12.495Z,97834.66
2022-11-21T06:13:39.848Z,97836.75
2022-11-21T06:16:12.476Z,97837.84
2022-11-21T06:18:41.981Z,97836.75
2022-11-21T06:21:14.876Z,97841.56
2022-11-21T06:23:42.088Z,97841.34
2022-11-21T06:26:13.419Z,97841.06
2022-11-21T06:28:41.562Z,97837.56
2022-11-21T06:31:17.131Z,97845.84
2022-11-21T06:33:45.007Z,97841.88
2022-11-21T06:36:15.069Z,97843.47
2022-11-21T06:38:42.578Z,97845.34
2022-11-21T06:41:21.044Z,97851.22
2022-11-21T06:43:47.820Z,97842.38
2022-11-21T06:46:15.572Z,97856.13
2022-11-21T06:48:42.999Z,97853.41
2022-11-21T06:51:17.546Z,97856.13
2022-11-21T06:53:44.897Z,97860.72
2022-11-21T06:56:11.765Z,97873.09
2022-11-21T06:58:38.870Z,97874.97
2022-11-21T07:01:07.564Z,97857.53
2022-11-21T07:03:35.293Z,97863.69
2022-11-21T07:06:03.167Z,97857.53
2022-11-21T07:08:31.149Z,97858.63
2022-11-21T07:11:25.058Z,97850.53
2022-11-21T07:13:52.931Z,97857.22
2022-11-21T07:16:19.735Z,97859.31
2022-11-21T07:18:46.534Z,97853.94
2022-11-21T07:21:13.275Z,97867.13
2022-11-21T07:23:40.213Z,97856.34
2022-11-21T07:26:08.433Z,97853.97
2022-11-21T07:28:35.402Z,97860.28
2022-11-21T07:31:07.117Z,97855.97
2022-11-21T07:33:39.959Z,97857.06
2022-11-21T07:36:07.172Z,97852.41
2022-11-21T07:38:33.931Z,97856.19
2022-11-21T07:41:00.684Z,97841.63
2022-11-21T07:43:27.494Z,97849.13
2022-11-21T07:45:54.351Z,97852.91
2022-11-21T07:48:21.384Z,97847.00
2022-11-21T07:50:48.126Z,97857.19
2022-11-21T07:53:14.981Z,97854.78
2022-11-21T07:55:42.526Z,97859.59
2022-11-21T07:58:17.392Z,97861.31
2022-11-21T08:00:44.261Z,97859.00
2022-11-21T08:03:12.989Z,97867.09
2022-11-21T08:05:42.088Z,97855.19
2022-11-21T08:08:10.814Z,97856.59
2022-11-21T08:10:39.539Z,97864.59
2022-11-21T08:13:06.496Z,97867.66
2022-11-21T08:15:33.237Z,97860.50
2022-11-21T08:18:07.678Z,97858.81
2022-11-21T08:20:34.494Z,97865.47
2022-11-21T08:23:01.555Z,97856.50
2022-11-21T08:25:28.332Z,97854.72
2022-11-21T08:27:58.947Z,97852.09
2022-11-21T08:30:26.270Z,97847.13
2022-11-21T08:32:53.197Z,97851.63
2022-11-21T08:35:20.008Z,97850.53
2022-11-21T08:37:46.821Z,97854.91
2022-11-21T08:40:13.643Z,97850.13
2022-11-21T08:42:40.401Z,97848.03
2022-11-21T08:45:09.949Z,97845.03
2022-11-21T08:47:36.694Z,97849.53
2022-11-21T08:50:08.821Z,97841.63
2022-11-21T08:52:36.055Z,97838.75
2022-11-21T08:55:03.021Z,97835.41
2022-11-21T08:57:31.394Z,97831.97
2022-11-21T08:59:58.195Z,97820.66
2022-11-21T09:02:24.997Z,97821.56
2022-11-21T09:04:53.339Z,97824.13
2022-11-21T09:07:20.105Z,97813.47
2022-11-21T09:09:46.959Z,97806.47
2022-11-21T09:12:13.937Z,97812.03
2022-11-21T09:14:59.519Z,97800.44
2022-11-21T09:17:45.013Z,97805.13
2022-11-21T09:20:11.794Z,97814.31
2022-11-21T09:22:38.625Z,97811.16
2022-11-21T09:25:05.769Z,97810.41
2022-11-21T09:27:32.512Z,97813.31
2022-11-21T09:29:59.447Z,97806.81
2022-11-21T09:32:28.766Z,97811.94
2022-11-21T09:34:55.499Z,97804.75
2022-11-21T09:37:22.434Z,97795.38
2022-11-21T09:39:49.173Z,97777.25
2022-11-21T09:42:47.816Z,97790.94
2022-11-21T09:45:30.134Z,97780.09
2022-11-21T09:47:57.084Z,97779.25
2022-11-21T09:50:32.775Z,97779.59
2022-11-21T09:53:13.083Z,97782.63
2022-11-21T09:55:51.603Z,97785.19
2022-11-21T09:58:28.244Z,97782.63
2022-11-21T10:00:55.344Z,97775.94
2022-11-21T10:03:27.040Z,97782.63
2022-11-21T10:06:38.881Z,97758.44
2022-11-21T10:09:38.042Z,97753.34
2022-11-21T10:12:38.628Z,97751.44
2022-11-21T10:15:47.246Z,97746.50
2022-11-21T10:18:41.693Z,97738.38
2022-11-21T10:21:34.271Z,97743.91
2022-11-21T10:25:02.917Z,97740.69
2022-11-21T10:27:41.525Z,97738.00
2022-11-21T10:30:16.728Z,97735.25
2022-11-21T10:32:47.746Z,97729.84
2022-11-21T10:35:20.561Z,97723.19
2022-11-21T10:37:53.486Z,97726.22
2022-11-21T10:40:40.242Z,97719.53
2022-11-21T10:43:40.993Z,97699.03
2022-11-21T10:46:11.051Z,97706.38
2022-11-21T10:48:37.951Z,97702.06
2022-11-21T10:51:14.001Z,97696.53
2022-11-21T10:54:04.638Z,97691.72
2022-11-21T10:56:36.361Z,97685.03
2022-11-21T10:59:23.430Z,97674.53
2022-11-21T11:02:12.714Z,97663.34
2022-11-21T11:04:47.368Z,97656.00
2022-11-21T11:07:28.613Z,97658.00
2022-11-21T11:10:28.557Z,97640.72
2022-11-21T11:13:44.638Z,97637.34
2022-11-21T11:16:11.165Z,97640.69
2022-11-21T11:18:46.991Z,97641.25
2022-11-21T11:21:23.632Z,97630.00
2022-11-21T11:23:52.771Z,97626.66
2022-11-21T11:26:29.338Z,97631.34
2022-11-21T11:29:09.551Z,97636.00
2022-11-21T11:31:46.023Z,97623.03
2022-11-21T11:34:15.104Z,97612.81
2022-11-21T11:37:09.385Z,97608.03
2022-11-21T11:40:13.808Z,97603.63
2022-11-21T11:43:17.586Z,97594.31
2022-11-21T11:46:33.803Z,97588.44
2022-11-21T11:49:23.458Z,97584.69
2022-11-21T11:51:59.249Z,97582.09
2022-11-21T11:54:49.620Z,97581.06
2022-11-21T11:57:17.621Z,97579.81
2022-11-21T11:59:59.366Z,97589.13
2022-11-21T12:02:43.649Z,97575.44
2022-11-21T12:05:24.792Z,97571.13
2022-11-21T12:12:08.335Z,97557.03
2022-11-21T12:15:11.904Z,97542.31
2022-11-21T12:18:16.181Z,97544.38
2022-11-21T12:20:49.114Z,97540.78
2022-11-21T12:23:16.197Z,97536.56
2022-11-21T12:25:57.569Z,97533.41
2022-11-21T12:28:53.868Z,97535.91
2022-11-21T12:31:59.759Z,97517.75
2022-11-21T12:34:32.761Z,97509.53
2022-11-21T12:37:16.916Z,97503.16
2022-11-21T12:39:53.417Z,97493.06
2022-11-21T12:42:51.359Z,97503.41
2022-11-21T12:45:32.445Z,97501.56
2022-11-21T12:48:35.663Z,97497.25
2022-11-21T12:51:36.399Z,97485.69
2022-11-21T12:54:32.766Z,97482.09
2022-11-21T12:57:16.464Z,97471.13
2022-11-21T13:00:10.058Z,97456.84
2022-11-21T13:03:14.390Z,97461.94
2022-11-21T13:05:50.954Z,97456.47
2022-11-21T13:08:25.369Z,97444.41
2022-11-21T13:11:31.105Z,97446.53
2022-11-21T13:14:19.329Z,97430.44
2022-11-21T13:17:03.637Z,97433.50
2022-11-21T13:19:35.323Z,97431.00
2022-11-21T13:22:02.270Z,97427.47
2022-11-21T13:24:59.204Z,97423.38
2022-11-21T13:27:32.197Z,97423.66
2022-11-21T13:30:08.056Z,97426.25
2022-11-21T13:32:52.174Z,97420.88
2022-11-21T13:35:21.865Z,97417.47
2022-11-21T13:38:08.588Z,97410.16
2022-11-21T13:41:00.450Z,97405.72
2022-11-21T13:43:35.511Z,97410.03
2022-11-21T13:46:02.584Z,97402.09
2022-11-21T13:48:34.540Z,97398.25
2022-11-21T13:51:26.231Z,97387.22
2022-11-21T13:54:22.291Z,97376.84
2022-11-21T13:57:25.049Z,97377.75
2022-11-21T14:00:13.259Z,97378.25
2022-11-21T14:02:51.547Z,97372.09
2022-11-21T14:05:40.291Z,97371.25
2022-11-21T14:08:22.527Z,97361.94
2022-11-21T14:10:52.775Z,97352.75
2022-11-21T14:13:28.209Z,97352.75
2022-11-21T14:16:10.452Z,97342.44
2022-11-21T14:18:39.066Z,97341.19
2022-11-21T14:21:08.247Z,97333.28
2022-11-21T14:23:35.386Z,97329.03
2022-11-21T14:26:05.937Z,97321.31
2022-11-21T14:28:34.912Z,97319.25
2022-11-21T14:31:03.904Z,97306.72
2022-11-21T14:33:38.769Z,97308.50
2022-11-21T14:36:23.697Z,97299.13
2022-11-21T14:39:21.361Z,97292.13
2022-11-21T14:41:49.639Z,97292.66
2022-11-21T14:44:19.657Z,97302.53
2022-11-21T14:46:47.708Z,97290.78
2022-11-21T14:49:14.519Z,97273.94
2022-11-21T14:51:43.118Z,97267.00
2022-11-21T14:54:32.535Z,97256.06
2022-11-21T14:57:06.475Z,97244.44
2022-11-21T14:59:40.318Z,97242.06
2022-11-21T15:02:18.087Z,97219.16
2022-11-21T15:04:46.536Z,97208.53
2022-11-21T15:07:21.155Z,97208.34
2022-11-21T15:12:46.189Z,97197.59
2022-11-21T15:15:25.836Z,97199.13
2022-11-21T15:20:49.522Z,97188.88
2022-11-21T15:23:26.139Z,97174.63
2022-11-21T15:25:57.878Z,97169.06
2022-11-21T15:28:27.716Z,97171.00
2022-11-21T15:31:20.365Z,97159.06
2022-11-21T15:34:27.349Z,97148.31
2022-11-21T15:36:43.842Z,97131.34
2022-11-21T15:39:22.392Z,97118.81
2022-11-21T15:41:49.163Z,97104.84
2022-11-21T15:44:21.986Z,97093.44
2022-11-21T15:46:51.843Z,97099.97
2022-11-21T15:49:32.552Z,97098.56
2022-11-21T15:52:09.544Z,97091.28
2022-11-21T15:54:47.328Z,97094.03
2022-11-21T15:57:16.662Z,97089.63
2022-11-21T15:59:44.612Z,97095.19
2022-11-21T16:02:13.913Z,97085.06
2022-11-21T16:04:41.962Z,97080.94
2022-11-21T16:07:08.761Z,97062.56
2022-11-21T16:09:36.455Z,97062.09
2022-11-21T16:12:03.426Z,97054.31
2022-11-21T16:14:30.288Z,97051.91
2022-11-21T16:16:57.012Z,97039.25
2022-11-21T16:19:23.803Z,97040.34
2022-11-21T16:21:50.547Z,97044.34
2022-11-21T16:24:17.390Z,97038.47
2022-11-21T16:26:44.274Z,97030.84
2022-11-21T16:29:11.325Z,97031.97
2022-11-21T16:31:38.087Z,97032.91
2022-11-21T16:34:04.836Z,97025.75
2022-11-21T16:36:32.251Z,97019.41
2022-11-21T16:39:07.656Z,97007.53
2022-11-21T16:41:36.019Z,97010.63
2022-11-21T16:44:02.791Z,96997.31
2022-11-21T16:46:29.572Z,96994.78
2022-11-21T16:49:03.791Z,96985.59
2022-11-21T16:51:30.844Z,96970.06
2022-11-21T16:54:00.658Z,96972.91
2022-11-21T16:56:29.781Z,96972.59
2022-11-21T16:58:56.479Z,96975.28
2022-11-21T17:01:26.211Z,96965.31
2022-11-21T17:03:53.458Z,96972.44
2022-11-21T17:06:23.675Z,96976.72
2022-11-21T17:08:50.538Z,96978.31
2022-11-21T17:11:29.025Z,96972.28
2022-11-21T17:14:00.833Z,96955.16
2022-11-21T17:16:29.052Z,96939.16
2022-11-21T17:18:57.716Z,96941.22
2022-11-21T17:21:25.771Z,96958.31
2022-11-21T17:23:53.187Z,96968.59
2022-11-21T17:26:22.350Z,96960.69
2022-11-21T17:29:15.553Z,96955.94
2022-11-21T17:31:42.779Z,96956.56
2022-11-21T17:34:09.501Z,96951.50
2022-11-21T17:36:36.206Z,96965.31
2022-11-21T17:39:03.455Z,96952.00
2022-11-21T17:41:30.254Z,96937.41
2022-11-21T17:43:58.233Z,96944.22
2022-11-21T17:46:25.918Z,96927.88
2022-11-21T17:48:57.306Z,96926.56
2022-11-21T17:51:28.841Z,96925.94
2022-11-21T17:53:56.500Z,96928.28
2022-11-21T17:56:26.258Z,96917.69
2022-11-21T17:58:53.432Z,96909.94
2022-11-21T18:01:21.945Z,96908.81
2022-11-21T18:03:57.670Z,96908.81
2022-11-21T18:06:28.270Z,96910.41
2022-11-21T18:08:58.346Z,96914.69
2022-11-21T18:11:31.901Z,96920.19
2022-11-21T18:14:02.206Z,96927.97
2022-11-21T18:16:31.832Z,96926.41
2022-11-21T18:18:59.309Z,96922.13
2022-11-21T18:21:29.656Z,96914.69
2022-11-21T18:23:57.619Z,96908.47
2022-11-21T18:26:27.078Z,96901.66
2022-11-21T18:31:46.509Z,96891.84
2022-11-21T18:34:13.394Z,96897.22
2022-11-21T18:36:40.275Z,96890.41
2022-11-21T18:39:14.280Z,96883.25
2022-11-21T18:41:43.085Z,96886.91
2022-11-21T18:44:10.440Z,96880.38
2022-11-21T18:46:38.572Z,96875.66
2022-11-21T18:49:07.350Z,96873.25
2022-11-21T18:51:35.646Z,96873.72
2022-11-21T18:54:07.290Z,96864.69
2022-11-21T18:56:36.250Z,96863.09
2022-11-21T18:59:05.423Z,96864.69
2022-11-21T19:01:33.097Z,96863.75
2022-11-21T19:04:00.036Z,96864.53
2022-11-21T19:06:27.769Z,96855.31
2022-11-21T19:08:57.013Z,96846.44
2022-11-21T19:11:26.519Z,96841.00
2022-11-21T19:13:54.682Z,96831.63
2022-11-21T19:16:24.791Z,96841.97
2022-11-21T19:21:41.564Z,96839.19
2022-11-21T19:24:13.255Z,96850.44
2022-11-21T19:26:40.652Z,96843.16
2022-11-21T19:29:07.725Z,96842.69
2022-11-21T19:31:39.117Z,96836.50
2022-11-21T19:34:09.743Z,96826.97
2022-11-21T19:36:36.518Z,96835.84
2022-11-21T19:39:03.321Z,96838.53
2022-11-21T19:41:30.712Z,96848.22
2022-11-21T19:44:01.755Z,96844.88
2022-11-21T19:46:35.200Z,96834.41
2022-11-21T19:49:03.009Z,96847.09
2022-11-21T19:51:36.145Z,96847.56
2022-11-21T19:54:07.169Z,96864.22
2022-11-21T19:56:34.766Z,96853.88
2022-11-21T19:59:01.737Z,96858.16
2022-11-21T20:01:30.517Z,96859.75
2022-11-21T20:03:59.965Z,96866.72
2022-11-21T20:06:30.629Z,96860.66
2022-11-21T20:08:59.916Z,96860.34
2022-11-21T20:11:28.715Z,96855.94
2022-11-21T20:13:55.974Z,96853.88
2022-11-21T20:16:29.041Z,96848.84
2022-11-21T20:18:58.614Z,96846.97
2022-11-21T20:21:26.309Z,96839.19
2022-11-21T20:23:53.167Z,96836.19
2022-11-21T20:26:21.617Z,96836.84
2022-11-21T20:28:49.419Z,96829.06
2022-11-21T20:31:22.034Z,96827.47
2022-11-21T20:33:51.950Z,96824.78
2022-11-21T20:36:22.264Z,96826.72
2022-11-21T20:39:13.189Z,96834.66
2022-11-21T20:41:41.361Z,96829.09
2022-11-21T20:45:30.046Z,96836.06
2022-11-21T20:47:07.430Z,96827.06
2022-11-21T20:49:34.205Z,96826.28
2022-11-21T20:54:47.871Z,96832.78
2022-11-21T20:57:15.604Z,96835.31
2022-11-21T20:59:43.065Z,96822.19
2022-11-21T21:02:12.213Z,96826.47
2022-11-21T21:04:39.701Z,96820.09
2022-11-21T21:07:06.544Z,96820.88
2022-11-21T21:09:33.349Z,96824.69
2022-11-21T21:12:00.139Z,96808.97
2022-11-21T21:14:27.073Z,96812.47
2022-11-21T21:16:53.799Z,96808.66
2022-11-21T21:19:21.510Z,96797.84
2022-11-21T21:21:48.601Z,96800.25
2022-11-21T21:24:15.931Z,96793.94
2022-11-21T21:26:47.862Z,96797.72
2022-11-21T21:29:18.538Z,96784.84
2022-11-21T21:31:51.065Z,96791.81
2022-11-21T21:34:20.673Z,96782.13
2022-11-21T21:36:47.920Z,96789.66
2022-11-21T21:39:14.723Z,96777.59
2022-11-21T21:41:44.589Z,96779.97
2022-11-21T21:44:12.133Z,96788.53
2022-11-21T21:46:38.827Z,96782.34
2022-11-21T21:49:05.563Z,96790.75
2022-11-21T21:51:32.475Z,96783.00
2022-11-21T21:54:00.133Z,96782.69
2022-11-21T21:56:28.594Z,96781.88
2022-11-21T21:58:57.209Z,96773.28
2022-11-21T22:01:26.972Z,96769.16
2022-11-21T22:03:56.032Z,96763.41
2022-11-21T22:06:23.287Z,96753.94
2022-11-21T22:08:51.079Z,96757.75
2022-11-21T22:11:21.938Z,96755.06
2022-11-21T22:13:52.369Z,96756.63
2022-11-21T22:16:19.500Z,96754.72
2022-11-21T22:18:46.467Z,96764.38
2022-11-21T22:21:24.402Z,96761.84
2022-11-21T22:24:22.913Z,96755.97
2022-11-21T22:26:38.625Z,96759.66
2022-11-21T22:29:05.639Z,96748.41
2022-11-21T22:31:32.834Z,96739.38
2022-11-21T22:34:00.284Z,96745.31
2022-11-21T22:36:27.170Z,96751.66
2022-11-21T22:38:54.866Z,96747.41
2022-11-21T22:41:24.389Z,96747.75
2022-11-21T22:43:53.940Z,96749.78
2022-11-21T22:46:21.408Z,96751.66
2022-11-21T22:48:48.700Z,96751.03
2022-11-21T22:51:18.815Z,96746.09
2022-11-21T22:53:47.018Z,96746.09
2022-11-21T22:56:16.539Z,96747.53
2022-11-21T22:58:43.652Z,96742.63
2022-11-21T23:01:22.017Z,96744.97
2022-11-21T23:03:49.527Z,96748.00
2022-11-21T23:06:18.653Z,96751.81
2022-11-21T23:08:46.311Z,96739.47
2022-11-21T23:11:16.096Z,96753.41
2022-11-21T23:13:44.255Z,96746.91
2022-11-21T23:16:14.040Z,96742.75
2022-11-21T23:18:43.411Z,96742.63
2022-11-21T23:21:11.720Z,96743.41
2022-11-21T23:23:38.727Z,96748.66
2022-11-21T23:26:06.357Z,96747.53
2022-11-21T23:28:33.849Z,96750.09
2022-11-21T23:31:00.888Z,96758.63
2022-11-21T23:33:27.737Z,96746.28
2022-11-21T23:35:55.184Z,96749.16
2022-11-21T23:38:22.057Z,96745.34
2022-11-21T23:40:49.899Z,96737.72
2022-11-21T23:43:18.071Z,96735.97
2022-11-21T23:45:49.723Z,96738.00
2022-11-21T23:48:17.514Z,96738.00
2022-11-21T23:50:47.272Z,96738.00
2022-11-21T23:53:14.209Z,96722.63
2022-11-21T23:55:40.983Z,96718.81
2022-11-21T23:58:08.170Z,96718.16
